Time;durP1;ratioP1;P1;durP2;ratioP2;P2;SDS_P1;SDS_P2;PMS_P1;PMS_P2;Temp;Humidity;BMP_temperature;BMP_pressure;BME280_temperature;BME280_humidity;BME280_pressure;Samples;Min_cycle;Max_cycle;Signal;HPM_P1;HPM_P2
2023/02/11 00:00:10;;;;;;;43.75;24.77;;;;;;;3.70;77.24;102384.69;5018213;28;20599;-68
2023/02/11 00:02:42;;;;;;;52.83;26.00;;;;;;;3.73;77.40;102378.25;5018343;28;20221;-67
2023/02/11 00:05:18;;;;;;;46.20;27.67;;;;;;;3.73;77.05;102376.41;5017641;28;20190;-67
2023/02/11 00:07:51;;;;;;;66.55;37.42;;;;;;;3.74;77.40;102385.31;5013137;28;20579;-67
2023/02/11 00:10:22;;;;;;;44.95;26.90;;;;;;;3.74;77.04;102391.50;5016058;28;20224;-67
2023/02/11 00:12:54;;;;;;;45.47;24.65;;;;;;;3.67;77.31;102406.38;5012517;28;20199;-68
2023/02/11 00:15:24;;;;;;;45.30;23.52;;;;;;;3.70;77.37;102405.28;5010123;28;20187;-68
2023/02/11 00:17:54;;;;;;;51.72;24.40;;;;;;;3.75;77.21;102417.31;5010039;28;20689;-68
2023/02/11 00:20:24;;;;;;;45.60;23.63;;;;;;;3.75;77.37;102414.66;4978723;28;20294;-67
2023/02/11 00:22:57;;;;;;;49.25;27.88;;;;;;;3.79;76.82;102402.72;5015856;28;20281;-66
2023/02/11 00:25:28;;;;;;;41.10;25.77;;;;;;;3.78;76.85;102398.31;5016305;28;20196;-68
2023/02/11 00:27:58;;;;;;;46.53;24.85;;;;;;;3.79;77.47;102386.66;4981603;28;20211;-68
2023/02/11 00:30:29;;;;;;;42.13;26.00;;;;;;;3.81;77.08;102376.69;4998551;28;20199;-68
2023/02/11 00:33:01;;;;;;;44.25;27.85;;;;;;;3.78;77.20;102363.50;4973625;28;20606;-66
2023/02/11 00:35:34;;;;;;;52.35;27.00;;;;;;;3.91;77.08;102366.94;4982878;28;20642;-67
2023/02/11 00:38:06;;;;;;;46.10;25.73;;;;;;;3.88;76.98;102369.84;5019280;28;20195;-68
2023/02/11 00:40:36;;;;;;;46.88;26.52;;;;;;;4.00;76.74;102369.84;5009890;28;20644;-68
2023/02/11 00:43:06;;;;;;;44.35;26.45;;;;;;;3.99;76.78;102365.44;5015450;28;20288;-68
2023/02/11 00:45:37;;;;;;;42.65;25.13;;;;;;;4.02;76.67;102378.63;5010473;28;20198;-67
2023/02/11 00:48:07;;;;;;;37.72;23.13;;;;;;;3.97;77.06;102388.84;4980688;28;20634;-68
2023/02/11 00:50:37;;;;;;;44.03;25.52;;;;;;;4.08;76.75;102388.81;5012477;28;20238;-67
2023/02/11 00:53:09;;;;;;;51.08;27.25;;;;;;;4.07;77.25;102387.97;4987344;28;20286;-68
2023/02/11 00:55:41;;;;;;;39.47;25.55;;;;;;;4.06;76.72;102375.56;5015176;28;20206;-66
2023/02/11 00:58:13;;;;;;;41.78;25.23;;;;;;;4.11;76.74;102386.75;4998826;28;20195;-67
2023/02/11 01:00:44;;;;;;;44.30;26.90;;;;;;;4.07;76.64;102377.25;4978351;28;20190;-68
2023/02/11 01:03:16;;;;;;;41.40;27.73;;;;;;;4.08;77.29;102356.66;5010897;28;20205;-67
2023/02/11 01:06:13;;;;;;;47.53;26.25;;;;;;;4.16;76.95;102341.69;4990114;28;20205;-68
2023/02/11 01:08:48;;;;;;;39.85;25.98;;;;;;;4.13;77.08;102333.03;5005796;28;20202;-67
2023/02/11 01:11:22;;;;;;;46.28;25.83;;;;;;;4.14;77.25;102334.75;5009452;28;20676;-68
2023/02/11 01:13:54;;;;;;;41.25;23.80;;;;;;;4.11;77.59;102319.78;4998875;28;20280;-68
2023/02/11 01:16:25;;;;;;;44.95;26.75;;;;;;;4.15;77.31;102298.94;5016067;28;20615;-69
2023/02/11 01:18:59;;;;;;;43.88;26.90;;;;;;;4.02;78.43;102303.59;5024079;28;20218;-69
2023/02/11 01:21:30;;;;;;;41.70;25.05;;;;;;;4.09;78.74;102288.72;4980169;28;20195;-67
2023/02/11 01:24:02;;;;;;;54.00;27.83;;;;;;;4.07;79.48;102301.38;4996925;28;20198;-67
2023/02/11 01:26:34;;;;;;;42.97;25.60;;;;;;;4.07;80.28;102301.38;4991981;28;20221;-67
2023/02/11 01:29:05;;;;;;;39.30;25.75;;;;;;;4.10;80.23;102298.47;5011378;28;20203;-66
2023/02/11 01:31:36;;;;;;;41.53;27.48;;;;;;;4.08;80.07;102287.88;4986634;28;20296;-67
2023/02/11 01:34:07;;;;;;;39.88;25.50;;;;;;;4.16;79.64;102289.94;5011292;28;20198;-67
2023/02/11 01:36:39;;;;;;;46.55;27.08;;;;;;;4.18;79.13;102293.31;5005548;28;20297;-67
2023/02/11 01:39:11;;;;;;;39.78;25.20;;;;;;;4.26;78.92;102298.91;4998105;28;20202;-68
2023/02/11 01:41:41;;;;;;;51.80;25.98;;;;;;;4.19;78.38;102289.66;5011237;28;20194;-67
2023/02/11 01:44:27;;;;;;;38.40;24.25;;;;;;;4.24;78.51;102287.44;5038094;28;20743;-68
2023/02/11 01:46:58;;;;;;;43.13;26.15;;;;;;;4.22;78.53;102265.28;4996063;28;20771;-67
2023/02/11 01:49:31;;;;;;;44.25;23.20;;;;;;;4.25;78.77;102267.72;5005072;28;20210;-68
2023/02/11 01:52:05;;;;;;;36.97;24.10;;;;;;;4.34;78.62;102291.06;5027786;28;20187;-67
2023/02/11 01:57:36;;;;;;;48.50;24.83;;;;;;;4.37;78.67;102288.13;5003652;28;20213;-66
2023/02/11 02:00:13;;;;;;;59.75;33.13;;;;;;;4.46;78.85;102287.34;5013159;28;20198;-67
2023/02/11 02:02:51;;;;;;;45.83;29.50;;;;;;;4.43;78.96;102268.84;5016085;28;20572;-66
2023/02/11 02:05:29;;;;;;;35.72;22.55;;;;;;;4.42;78.99;102259.09;5003678;28;20206;-67
2023/02/11 02:08:09;;;;;;;43.88;26.63;;;;;;;4.50;79.03;102267.38;5012234;28;20296;-67
2023/02/11 02:10:43;;;;;;;37.50;24.73;;;;;;;4.53;79.03;102291.22;5011251;28;20597;-68
2023/02/11 02:13:16;;;;;;;56.92;29.80;;;;;;;4.51;78.88;102287.81;5008490;28;20699;-68
2023/02/11 02:15:50;;;;;;;45.25;26.73;;;;;;;4.46;79.02;102275.78;5013469;28;20186;-68
2023/02/11 02:18:32;;;;;;;43.85;23.75;;;;;;;4.52;78.63;102276.13;4980211;28;20190;-69
2023/02/11 02:21:41;;;;;;;44.90;27.08;;;;;;;4.50;78.97;102271.88;5015810;28;20574;-67
2023/02/11 02:24:45;;;;;;;37.22;24.25;;;;;;;4.60;78.81;102273.63;5015543;28;20198;-68
2023/02/11 02:27:36;;;;;;;44.47;27.25;;;;;;;4.60;78.47;102273.63;5009385;28;20596;-67
2023/02/11 02:30:37;;;;;;;42.53;26.23;;;;;;;4.67;78.77;102258.75;5005313;28;20210;-67
2023/02/11 02:33:31;;;;;;;43.05;26.75;;;;;;;4.59;79.30;102255.88;4993718;28;20681;-66
2023/02/11 02:36:11;;;;;;;46.55;27.05;;;;;;;4.72;78.72;102263.69;5022090;28;20229;-68
2023/02/11 02:38:49;;;;;;;44.03;26.63;;;;;;;4.62;79.33;102252.06;5012705;28;20191;-68
2023/02/11 02:41:22;;;;;;;49.72;27.88;;;;;;;4.63;79.20;102243.91;5002819;28;20696;-67
2023/02/11 02:43:54;;;;;;;54.83;28.92;;;;;;;4.69;79.22;102235.34;5016214;28;20222;-67
2023/02/11 02:46:27;;;;;;;40.17;24.52;;;;;;;4.70;78.91;102238.84;4968679;28;20289;-67
2023/02/11 02:49:01;;;;;;;46.58;25.58;;;;;;;4.67;79.18;102242.66;4981002;28;20214;-66
2023/02/11 02:51:53;;;;;;;43.65;27.95;;;;;;;4.61;79.86;102243.16;4982823;28;20210;-68
2023/02/11 02:54:54;;;;;;;46.63;26.27;;;;;;;4.62;79.93;102242.19;5017616;28;20285;-67
2023/02/11 02:57:32;;;;;;;48.63;26.05;;;;;;;4.66;79.98;102235.56;5015523;28;20225;-68
2023/02/11 03:00:24;;;;;;;47.47;28.98;;;;;;;4.68;80.07;102239.00;4991210;28;20271;-69
2023/02/11 03:03:09;;;;;;;39.10;25.48;;;;;;;4.65;79.92;102233.00;4998098;28;20191;-67
2023/02/11 03:05:50;;;;;;;39.88;27.35;;;;;;;4.67;80.77;102225.69;4977687;28;20579;-67
2023/02/11 03:08:30;;;;;;;48.85;29.67;;;;;;;4.71;80.28;102228.00;5020597;28;20241;-66
2023/02/11 03:11:03;;;;;;;48.85;28.05;;;;;;;4.71;80.59;102222.63;4982566;28;20261;-68
2023/02/11 03:13:36;;;;;;;53.38;28.50;;;;;;;4.74;81.04;102222.34;4984332;28;20637;-68
2023/02/11 03:16:12;;;;;;;46.42;27.73;;;;;;;4.80;80.47;102216.47;5012870;28;20210;-66
2023/02/11 03:18:46;;;;;;;45.00;26.35;;;;;;;4.75;80.86;102207.09;4990530;28;20202;-67
2023/02/11 03:21:21;;;;;;;52.15;27.40;;;;;;;4.87;80.51;102210.56;5000932;28;20611;-67
2023/02/11 03:23:55;;;;;;;52.20;28.50;;;;;;;4.77;81.00;102216.75;5007875;28;20194;-67
2023/02/11 03:26:29;;;;;;;46.30;28.50;;;;;;;4.82;80.67;102213.66;4986849;28;20250;-66
2023/02/11 03:29:03;;;;;;;53.10;29.38;;;;;;;4.78;81.20;102207.72;5009594;28;20214;-67
2023/02/11 03:31:37;;;;;;;55.33;28.83;;;;;;;4.88;81.36;102207.78;5021910;28;20202;-67
2023/02/11 03:34:11;;;;;;;49.35;28.73;;;;;;;4.92;81.01;102203.84;4986706;28;20671;-67
2023/02/11 03:36:50;;;;;;;50.30;28.05;;;;;;;4.79;81.27;102208.56;5009194;28;20234;-67
2023/02/11 03:39:33;;;;;;;46.55;29.63;;;;;;;4.85;81.97;102201.78;4985554;28;20695;-68
2023/02/11 03:42:06;;;;;;;51.28;29.13;;;;;;;4.76;81.51;102209.66;5008007;28;20680;-67
2023/02/11 03:44:41;;;;;;;51.00;27.05;;;;;;;4.79;81.75;102206.72;5008362;28;20206;-67
2023/02/11 03:47:15;;;;;;;46.47;26.23;;;;;;;4.80;82.04;102210.25;4973628;28;20230;-66
2023/02/11 03:49:50;;;;;;;43.95;27.70;;;;;;;4.75;82.46;102215.16;5005144;28;20269;-66
2023/02/11 03:52:25;;;;;;;56.10;30.42;;;;;;;4.79;82.10;102213.94;4979721;28;20209;-67
2023/02/11 03:55:00;;;;;;;43.10;26.80;;;;;;;4.82;82.26;102209.16;5011750;28;20580;-66
2023/02/11 03:57:33;;;;;;;47.67;30.02;;;;;;;4.75;82.65;102207.97;5016498;28;20233;-67
2023/02/11 04:00:04;;;;;;;54.90;29.60;;;;;;;4.73;83.03;102207.25;5015208;28;20234;-68
2023/02/11 04:02:40;;;;;;;46.63;29.60;;;;;;;4.76;82.71;102204.31;5000135;28;20194;-67
2023/02/11 04:05:14;;;;;;;55.00;30.80;;;;;;;4.78;83.26;102217.59;5000003;28;20193;-67
2023/02/11 04:07:46;;;;;;;48.83;28.20;;;;;;;4.74;83.12;102208.94;5005105;28;20230;-66
2023/02/11 04:10:17;;;;;;;45.35;30.77;;;;;;;4.78;83.38;102207.72;5019649;28;20298;-68
2023/02/11 04:12:48;;;;;;;45.03;27.02;;;;;;;4.76;83.38;102204.31;5019464;28;20313;-67
2023/02/11 04:15:20;;;;;;;45.90;29.02;;;;;;;4.73;83.80;102209.09;4982547;28;20246;-68
2023/02/11 04:17:51;;;;;;;50.78;27.35;;;;;;;4.77;84.18;102208.69;4997188;28;20218;-67
2023/02/11 04:20:21;;;;;;;50.90;30.85;;;;;;;4.93;84.56;102220.78;5018416;28;20206;-68
2023/02/11 04:22:53;;;;;;;53.10;28.92;;;;;;;4.97;84.44;102211.47;4999284;28;20191;-69
2023/02/11 04:25:23;;;;;;;52.35;29.33;;;;;;;5.04;84.14;102212.63;5017910;28;20218;-68
2023/02/11 04:27:53;;;;;;;51.75;29.63;;;;;;;5.10;84.00;102209.41;4989546;28;20268;-66
2023/02/11 04:30:24;;;;;;;55.20;31.20;;;;;;;5.09;83.36;102199.66;5011754;28;20209;-67
2023/02/11 04:32:54;;;;;;;54.35;29.25;;;;;;;4.92;84.42;102202.97;5017810;28;20202;-67
2023/02/11 04:35:25;;;;;;;60.67;33.65;;;;;;;4.96;84.55;102209.78;5013659;28;20635;-67
2023/02/11 04:37:57;;;;;;;54.45;31.08;;;;;;;4.94;85.31;102212.56;5014837;28;20265;-68
2023/02/11 04:40:27;;;;;;;54.50;32.28;;;;;;;4.91;86.06;102196.75;5001797;28;20201;-67
2023/02/11 04:42:57;;;;;;;52.72;32.00;;;;;;;4.90;86.30;102195.06;5009847;28;20228;-69
2023/02/11 04:45:29;;;;;;;54.88;33.67;;;;;;;4.88;86.55;102185.47;4986610;28;20194;-67
2023/02/11 04:47:59;;;;;;;60.25;34.35;;;;;;;4.98;86.97;102189.03;4990180;28;20194;-68
2023/02/11 04:50:30;;;;;;;57.17;32.72;;;;;;;4.89;87.26;102197.91;5013087;28;20825;-67
2023/02/11 04:53:01;;;;;;;49.53;31.20;;;;;;;5.02;87.16;102185.09;5015666;28;20492;-67
2023/02/11 04:55:31;;;;;;;64.38;34.00;;;;;;;4.89;88.06;102169.22;4986625;28;20199;-69
2023/02/11 04:58:02;;;;;;;53.33;32.78;;;;;;;4.84;89.04;102168.78;5014745;28;20210;-67
2023/02/11 05:00:33;;;;;;;55.67;30.50;;;;;;;5.00;88.69;102173.63;5011845;28;20210;-67
2023/02/11 05:03:03;;;;;;;53.67;30.05;;;;;;;5.01;88.90;102165.47;5006014;28;20245;-66
2023/02/11 05:05:33;;;;;;;59.47;34.67;;;;;;;4.93;88.86;102162.63;4981402;28;20199;-67
2023/02/11 05:08:05;;;;;;;65.25;33.67;;;;;;;4.87;89.10;102163.16;5000864;28;20183;-66
2023/02/11 05:10:40;;;;;;;54.30;32.72;;;;;;;5.00;89.22;102154.84;4977013;28;20218;-66
2023/02/11 05:13:10;;;;;;;68.78;34.72;;;;;;;4.96;89.67;102151.59;5005594;28;20206;-68
2023/02/11 05:15:40;;;;;;;51.53;30.30;;;;;;;4.88;90.27;102148.75;5012839;28;20201;-68
2023/02/11 05:18:10;;;;;;;49.78;34.67;;;;;;;4.80;91.03;102145.88;4990522;28;20201;-66
2023/02/11 05:20:40;;;;;;;57.60;33.05;;;;;;;4.71;91.92;102136.81;5017231;28;20534;-67
2023/02/11 05:23:13;;;;;;;53.25;33.40;;;;;;;4.79;91.45;102128.13;5013441;28;20220;-66
2023/02/11 05:25:43;;;;;;;62.95;35.08;;;;;;;4.79;92.00;102125.44;4995195;28;20195;-66
2023/02/11 05:28:13;;;;;;;64.70;36.90;;;;;;;4.79;91.73;102118.19;5009541;28;20249;-67
2023/02/11 05:30:43;;;;;;;50.70;31.35;;;;;;;4.86;91.58;102115.84;5004531;28;20292;-67
2023/02/11 05:33:14;;;;;;;57.58;35.08;;;;;;;4.98;91.03;102127.34;5011462;28;20199;-66
2023/02/11 05:35:44;;;;;;;62.05;32.92;;;;;;;4.90;91.32;102122.63;4991838;28;20190;-68
2023/02/11 05:38:15;;;;;;;63.17;35.00;;;;;;;4.93;91.50;102119.69;5016987;28;20191;-65
2023/02/11 05:40:46;;;;;;;59.25;34.90;;;;;;;4.84;92.05;102119.66;5015848;28;20193;-66
2023/02/11 05:43:17;;;;;;;64.97;33.92;;;;;;;4.71;93.15;102110.00;5011475;28;20221;-67
2023/02/11 05:45:47;;;;;;;58.00;34.20;;;;;;;4.82;93.49;102106.38;5010820;28;20203;-67
2023/02/11 05:48:18;;;;;;;56.88;33.67;;;;;;;4.88;93.19;102099.63;5014125;28;20199;-65
2023/02/11 05:50:48;;;;;;;65.38;36.30;;;;;;;4.81;94.41;102105.53;5009680;28;20616;-67
2023/02/11 05:53:19;;;;;;;67.47;35.75;;;;;;;4.94;94.72;102105.28;5005772;28;20192;-67
2023/02/11 05:55:49;;;;;;;72.35;37.40;;;;;;;4.92;94.52;102118.00;5014824;28;20687;-66
2023/02/11 05:58:20;;;;;;;50.42;30.27;;;;;;;4.95;94.56;102112.34;5002276;28;20264;-67
2023/02/11 06:00:50;;;;;;;53.42;32.65;;;;;;;4.97;94.72;102106.84;5011731;28;20198;-68
2023/02/11 06:03:21;;;;;;;67.38;35.13;;;;;;;4.95;95.51;102119.53;5011314;28;20186;-67
2023/02/11 06:05:51;;;;;;;68.47;37.70;;;;;;;5.01;95.58;102122.53;4994951;28;20315;-67
2023/02/11 06:08:23;;;;;;;61.47;36.30;;;;;;;5.01;96.01;102127.03;5006431;28;20205;-67
2023/02/11 06:10:55;;;;;;;67.78;39.10;;;;;;;5.01;96.08;102121.69;5008557;28;20256;-69
2023/02/11 06:13:26;;;;;;;58.08;35.42;;;;;;;5.07;95.99;102127.38;5011775;28;20198;-67
2023/02/11 06:15:57;;;;;;;68.97;37.72;;;;;;;5.12;95.88;102116.22;4980617;28;20214;-68
2023/02/11 06:18:28;;;;;;;67.05;36.38;;;;;;;5.12;95.53;102119.75;4985329;28;20210;-66
2023/02/11 06:20:58;;;;;;;67.32;38.05;;;;;;;5.13;95.89;102115.25;4980556;28;20202;-67
2023/02/11 06:23:30;;;;;;;72.70;39.95;;;;;;;5.04;96.54;102114.19;5019163;28;20576;-68
2023/02/11 06:26:03;;;;;;;73.20;40.92;;;;;;;5.08;96.75;102106.75;5008212;28;20609;-68
2023/02/11 06:28:34;;;;;;;62.95;37.13;;;;;;;5.08;97.19;102104.06;5017220;28;20202;-68
2023/02/11 06:31:08;;;;;;;62.30;36.15;;;;;;;5.18;97.17;102104.94;5011416;28;20298;-67
2023/02/11 06:33:40;;;;;;;66.35;39.28;;;;;;;5.19;97.23;102099.41;4995919;28;20191;-67
2023/02/11 06:36:18;;;;;;;65.25;37.55;;;;;;;5.21;97.72;102089.41;5010520;28;20246;-68
2023/02/11 06:38:50;;;;;;;64.65;38.60;;;;;;;5.13;98.53;102088.41;5014166;28;20624;-69
2023/02/11 06:41:21;;;;;;;70.53;39.75;;;;;;;5.18;98.41;102080.78;5017701;28;20218;-68
2023/02/11 06:43:54;;;;;;;70.10;39.65;;;;;;;5.19;98.66;102093.19;4995284;28;20209;-68
2023/02/11 06:46:24;;;;;;;65.28;38.22;;;;;;;5.24;99.03;102090.94;4981618;28;20222;-69
2023/02/11 06:48:54;;;;;;;76.18;41.35;;;;;;;5.16;99.52;102090.81;5010517;28;20592;-68
2023/02/11 06:51:24;;;;;;;70.82;40.63;;;;;;;5.23;99.69;102099.97;4994724;28;20206;-67
2023/02/11 06:53:56;;;;;;;66.43;39.75;;;;;;;5.27;98.98;102105.94;5011540;28;20302;-67
2023/02/11 06:56:27;;;;;;;73.75;38.50;;;;;;;5.27;99.30;102109.47;5012146;28;20716;-68
2023/02/11 06:58:59;;;;;;;64.53;39.80;;;;;;;5.24;99.53;102107.06;4979492;28;20198;-68
2023/02/11 07:01:29;;;;;;;76.10;39.90;;;;;;;5.30;100.00;102106.50;4983733;28;20202;-68
2023/02/11 07:03:59;;;;;;;74.97;42.80;;;;;;;5.36;99.98;102113.16;4980897;28;20214;-68
2023/02/11 07:06:29;;;;;;;73.40;41.45;;;;;;;5.37;99.97;102101.44;4997680;28;20206;-67
2023/02/11 07:09:00;;;;;;;78.38;39.63;;;;;;;5.39;100.00;102102.13;5000775;28;20268;-68
2023/02/11 07:11:32;;;;;;;69.95;39.88;;;;;;;5.53;99.84;102096.34;5032599;28;20220;-66
2023/02/11 07:14:04;;;;;;;70.90;41.13;;;;;;;5.50;100.00;102097.50;4990247;28;20673;-68
2023/02/11 07:16:47;;;;;;;70.72;39.08;;;;;;;5.57;100.00;102100.44;5011986;28;20222;-67
2023/02/11 07:19:17;;;;;;;81.85;41.40;;;;;;;5.52;100.00;102083.91;5004199;28;20549;-67
2023/02/11 07:21:49;;;;;;;72.32;36.38;;;;;;;5.48;100.00;102087.88;5008476;28;20326;-68
2023/02/11 07:24:22;;;;;;;83.72;40.63;;;;;;;5.60;100.00;102095.66;4980080;28;20699;-67
2023/02/11 07:26:53;;;;;;;65.97;36.78;;;;;;;5.57;100.00;102087.88;4994900;28;20210;-68
2023/02/11 07:29:23;;;;;;;82.72;42.78;;;;;;;5.58;100.00;102080.66;4991894;28;20218;-67
2023/02/11 07:31:55;;;;;;;75.30;39.70;;;;;;;5.56;100.00;102074.63;5010164;28;20635;-67
2023/02/11 07:34:25;;;;;;;75.85;40.70;;;;;;;5.67;100.00;102077.97;5005914;28;20228;-66
2023/02/11 07:36:55;;;;;;;78.60;41.85;;;;;;;5.86;99.35;102066.38;5015659;28;20225;-67
2023/02/11 07:39:28;;;;;;;70.47;44.30;;;;;;;5.81;99.09;102073.19;4999250;28;20179;-66
2023/02/11 07:41:58;;;;;;;72.43;41.38;;;;;;;5.91;99.02;102076.72;4982230;28;20244;-66
2023/02/11 07:44:29;;;;;;;69.80;41.65;;;;;;;5.96;98.46;102083.38;5020661;28;20209;-68
2023/02/11 07:47:01;;;;;;;72.60;38.28;;;;;;;5.99;98.23;102079.56;5015678;28;20303;-67
2023/02/11 07:49:31;;;;;;;79.13;39.58;;;;;;;5.99;98.63;102079.56;5020313;28;20203;-68
2023/02/11 07:52:01;;;;;;;65.80;38.70;;;;;;;6.00;98.54;102078.56;5011483;28;20211;-68
2023/02/11 07:54:33;;;;;;;66.32;42.13;;;;;;;5.99;98.65;102079.56;5011044;28;20265;-69
2023/02/11 07:57:03;;;;;;;72.18;38.72;;;;;;;6.01;98.66;102082.94;5014126;28;20589;-68
2023/02/11 07:59:34;;;;;;;70.53;38.40;;;;;;;6.01;98.69;102093.69;5011140;28;20256;-69
2023/02/11 08:02:05;;;;;;;76.78;43.17;;;;;;;6.17;98.39;102087.72;5015347;28;20692;-68
2023/02/11 08:04:35;;;;;;;70.90;38.95;;;;;;;6.13;97.86;102076.41;5013675;28;20198;-69
2023/02/11 08:07:10;;;;;;;66.97;35.28;;;;;;;6.14;98.10;102091.56;4989611;28;20221;-68
2023/02/11 08:09:43;;;;;;;63.38;35.97;;;;;;;6.17;98.97;102104.69;5000782;28;20280;-68
2023/02/11 08:12:14;;;;;;;73.88;37.33;;;;;;;6.22;99.28;102104.25;5010590;28;20218;-68
2023/02/11 08:14:44;;;;;;;84.85;44.13;;;;;;;6.22;98.83;102105.13;4979531;28;20198;-68
2023/02/11 08:17:14;;;;;;;69.95;40.17;;;;;;;6.34;99.12;102122.75;5021341;28;20222;-67
2023/02/11 08:19:44;;;;;;;56.90;36.47;;;;;;;6.33;98.94;102122.94;4979098;28;20684;-68
2023/02/11 08:22:15;;;;;;;67.82;40.55;;;;;;;6.42;98.72;102120.22;5000767;28;20203;-67
2023/02/11 08:24:46;;;;;;;66.85;37.67;;;;;;;6.45;98.70;102119.06;4981099;28;20202;-68
2023/02/11 08:27:19;;;;;;;80.07;39.58;;;;;;;6.31;99.27;102119.53;5017032;28;20213;-68
2023/02/11 08:29:50;;;;;;;68.50;40.22;;;;;;;6.31;99.75;102108.78;5016900;28;20198;-68
2023/02/11 08:32:20;;;;;;;64.85;38.15;;;;;;;6.29;99.69;102122.38;5010794;28;20206;-68
2023/02/11 08:34:53;;;;;;;84.72;41.67;;;;;;;6.34;100.00;102120.06;5019241;28;20201;-68
2023/02/11 08:37:23;;;;;;;65.43;37.10;;;;;;;6.20;100.00;102130.44;5018125;28;20240;-67
2023/02/11 08:39:54;;;;;;;75.28;40.40;;;;;;;6.30;100.00;102125.88;5012757;28;20191;-68
2023/02/11 08:42:24;;;;;;;66.15;40.55;;;;;;;6.31;100.00;102141.03;5011778;28;20298;-67
2023/02/11 08:44:55;;;;;;;72.07;37.85;;;;;;;6.32;100.00;102148.13;5008341;28;20207;-68
2023/02/11 08:47:25;;;;;;;67.35;38.63;;;;;;;6.35;99.85;102143.28;4981203;28;20601;-67
2023/02/11 08:49:55;;;;;;;70.93;37.15;;;;;;;6.34;99.70;102128.13;5015186;28;20206;-67
2023/02/11 08:52:25;;;;;;;69.90;40.15;;;;;;;6.31;99.85;102119.53;5018389;28;20238;-68
2023/02/11 08:54:57;;;;;;;72.28;40.15;;;;;;;6.39;99.79;102106.22;5015817;28;20201;-68
2023/02/11 08:57:28;;;;;;;72.30;40.10;;;;;;;6.35;99.55;102100.25;4998387;28;20221;-67
2023/02/11 08:59:59;;;;;;;72.90;41.47;;;;;;;6.37;99.22;102100.13;4996577;28;20222;-68
2023/02/11 09:02:29;;;;;;;71.50;41.63;;;;;;;6.39;99.61;102106.22;4996334;28;20564;-67
2023/02/11 09:04:59;;;;;;;69.10;38.35;;;;;;;6.29;99.88;102100.03;5000571;28;20212;-68
2023/02/11 09:07:29;;;;;;;71.03;36.13;;;;;;;6.34;99.79;102092.38;5002890;28;20633;-67
2023/02/11 09:10:02;;;;;;;63.78;36.30;;;;;;;6.36;100.00;102091.22;4995340;28;20187;-67
2023/02/11 09:12:32;;;;;;;61.05;34.40;;;;;;;6.38;99.87;102110.75;5000313;28;20228;-67
2023/02/11 09:15:02;;;;;;;60.58;34.75;;;;;;;6.37;99.81;102109.06;5016318;28;20200;-67
2023/02/11 09:17:33;;;;;;;65.22;37.72;;;;;;;6.43;99.51;102119.22;4982028;28;20214;-68
2023/02/11 09:20:03;;;;;;;55.38;35.55;;;;;;;6.44;99.42;102125.44;5020730;28;20187;-67
2023/02/11 09:22:34;;;;;;;64.88;38.83;;;;;;;6.42;100.00;102128.28;5019529;28;20198;-67
2023/02/11 09:25:06;;;;;;;57.55;35.80;;;;;;;6.32;100.00;102146.28;5013583;28;20206;-68
2023/02/11 09:27:36;;;;;;;63.88;35.55;;;;;;;6.36;100.00;102142.31;5024622;28;20220;-67
2023/02/11 09:30:08;;;;;;;69.10;38.28;;;;;;;6.38;100.00;102132.25;5012776;28;20210;-66
2023/02/11 09:32:39;;;;;;;58.50;34.53;;;;;;;6.35;100.00;102131.69;5019750;28;20226;-67
2023/02/11 09:35:09;;;;;;;56.33;34.25;;;;;;;6.44;100.00;102136.19;5016115;28;20202;-67
2023/02/11 09:37:39;;;;;;;70.38;37.13;;;;;;;6.49;100.00;102150.91;5018319;28;20300;-67
2023/02/11 09:40:13;;;;;;;54.03;32.53;;;;;;;6.61;99.90;102148.91;5016914;28;20198;-67
2023/02/11 09:42:49;;;;;;;64.47;36.67;;;;;;;6.59;99.81;102155.41;5021741;28;20206;-67
2023/02/11 09:45:23;;;;;;;65.00;33.53;;;;;;;6.55;100.00;102150.31;5012557;28;20196;-68
2023/02/11 09:47:56;;;;;;;60.95;33.00;;;;;;;6.60;100.00;102140.97;5028497;28;20233;-68
2023/02/11 09:50:31;;;;;;;56.45;34.88;;;;;;;6.53;100.00;102160.38;4999325;28;20198;-68
2023/02/11 09:53:04;;;;;;;60.60;35.22;;;;;;;6.48;100.00;102168.06;5025563;28;20240;-67
2023/02/11 09:55:41;;;;;;;59.80;34.58;;;;;;;6.57;100.00;102165.47;5011199;28;20206;-67
2023/02/11 09:58:15;;;;;;;59.47;35.78;;;;;;;6.59;100.00;102171.53;5029025;28;20190;-69
2023/02/11 10:00:48;;;;;;;70.78;37.05;;;;;;;6.67;100.00;102177.06;5031882;28;20213;-68
2023/02/11 10:03:44;;;;;;;60.45;34.10;;;;;;;6.68;100.00;102176.91;4997168;28;20253;-67
2023/02/11 10:06:25;;;;;;;55.25;32.30;;;;;;;6.58;100.00;102169.88;5011422;28;20226;-67
2023/02/11 10:09:05;;;;;;;60.30;33.45;;;;;;;6.58;100.00;102175.25;5004440;28;20218;-67
2023/02/11 10:11:49;;;;;;;59.50;36.05;;;;;;;6.67;100.00;102183.28;5034413;28;20206;-67
2023/02/11 10:14:49;;;;;;;63.17;34.47;;;;;;;6.59;100.00;102177.78;5034324;28;20221;-69
2023/02/11 10:17:27;;;;;;;47.88;30.05;;;;;;;6.63;100.00;102167.59;5030001;28;20294;-67
2023/02/11 10:20:15;;;;;;;60.50;35.70;;;;;;;6.66;100.00;102167.28;5010219;28;20258;-68
2023/02/11 10:22:49;;;;;;;54.47;32.03;;;;;;;6.86;100.00;102168.94;5023994;28;20206;-68
2023/02/11 10:25:23;;;;;;;65.15;33.75;;;;;;;6.66;100.00;102178.03;4985894;28;20604;-68
2023/02/11 10:28:01;;;;;;;56.75;32.22;;;;;;;6.74;100.00;102180.84;5028092;28;20696;-68
2023/02/11 10:30:37;;;;;;;62.67;34.25;;;;;;;6.64;100.00;102178.19;4983533;28;20217;-68
2023/02/11 10:33:18;;;;;;;60.13;33.35;;;;;;;6.60;100.00;102174.09;5028674;28;20707;-68
2023/02/11 10:35:49;;;;;;;54.20;29.58;;;;;;;6.62;100.00;102184.72;5029786;28;20195;-68
2023/02/11 10:38:20;;;;;;;54.60;33.53;;;;;;;6.63;100.00;102181.91;5001859;28;20264;-68
2023/02/11 10:40:50;;;;;;;63.50;32.33;;;;;;;6.71;100.00;102171.25;5011920;28;20241;-68
2023/02/11 10:43:26;;;;;;;57.42;32.47;;;;;;;6.69;100.00;102165.16;5009676;28;20225;-69
2023/02/11 10:45:57;;;;;;;54.15;35.72;;;;;;;6.73;100.00;102157.66;5011769;28;20227;-69
2023/02/11 10:48:44;;;;;;;50.72;32.63;;;;;;;6.78;100.00;102155.34;4996032;28;20198;-67
2023/02/11 10:51:22;;;;;;;51.95;33.17;;;;;;;6.79;100.00;102154.34;5013616;28;20202;-66
2023/02/11 10:54:20;;;;;;;69.55;33.85;;;;;;;6.67;100.00;102159.09;5009261;28;20214;-68
2023/02/11 10:56:58;;;;;;;55.38;34.33;;;;;;;6.76;100.00;102162.72;4983327;28;20220;-68
2023/02/11 10:59:39;;;;;;;53.90;29.67;;;;;;;6.67;100.00;102153.69;4996206;28;20265;-70
2023/02/11 11:02:24;;;;;;;68.60;33.28;;;;;;;6.76;100.00;102142.06;5004554;28;20194;-67
2023/02/11 11:04:59;;;;;;;52.50;30.70;;;;;;;6.75;100.00;102142.19;5009487;28;20190;-68
2023/02/11 11:07:33;;;;;;;56.55;32.45;;;;;;;6.82;100.00;102143.31;4997480;28;20221;-67
2023/02/11 11:10:07;;;;;;;53.42;30.23;;;;;;;6.86;100.00;102150.09;5002426;28;20269;-66
2023/02/11 11:12:48;;;;;;;58.35;31.40;;;;;;;6.87;100.00;102144.53;5023483;28;20218;-68
2023/02/11 11:15:25;;;;;;;55.30;31.40;;;;;;;6.76;100.00;102168.09;4964476;28;20199;-67
2023/02/11 11:18:15;;;;;;;53.25;31.33;;;;;;;6.71;100.00;102152.41;5003668;28;20735;-67
2023/02/11 11:21:01;;;;;;;52.13;31.33;;;;;;;6.84;100.00;102161.00;4987152;28;20198;-67
2023/02/11 11:23:35;;;;;;;56.53;34.95;;;;;;;6.81;100.00;102133.53;5017997;28;20218;-68
2023/02/11 11:26:07;;;;;;;49.10;29.73;;;;;;;6.80;100.00;102126.47;5009325;28;20226;-68
2023/02/11 11:28:43;;;;;;;57.63;32.58;;;;;;;6.80;100.00;102127.31;5019734;28;20294;-66
2023/02/11 11:31:22;;;;;;;57.80;31.23;;;;;;;6.79;100.00;102127.44;5011618;28;20230;-67
2023/02/11 11:33:56;;;;;;;56.95;31.85;;;;;;;6.75;100.00;102139.50;4998303;28;20249;-68
2023/02/11 11:36:36;;;;;;;52.97;35.67;;;;;;;6.80;100.00;102142.59;5010138;28;20790;-68
2023/02/11 11:39:21;;;;;;;47.60;28.77;;;;;;;6.86;100.00;102145.56;4971405;28;20241;-66
2023/02/11 11:41:54;;;;;;;51.28;30.10;;;;;;;6.89;100.00;102139.88;4993610;28;20199;-67
2023/02/11 11:44:34;;;;;;;51.00;28.20;;;;;;;6.86;100.00;102134.81;4996972;28;20194;-69
2023/02/11 11:47:28;;;;;;;52.70;26.48;;;;;;;6.98;100.00;102130.91;5000896;28;20337;-66